<?xml version="1.0" encoding="UTF-8" standalone="no" ?>
<gpx xmlns="http://www.topografix.com/GPX/1/1" xmlns:xsi="http://www.w3.org/2001/XMLSchema-instance" xsi:schemaLocation="http://www.topografix.com/GPX/1/1 http://www.topografix.com/GPX/1/1/gpx.xsd" version="1.1" creator="VisuGPX - https://www.visugpx.com">
  <metadata>
    <name>pech david et marcaissonne</name>
    <desc><![CDATA[pech david et marcaissonne route moins de 500 points pour vieux gps]]></desc>
  </metadata>
  <trk>
    <name><![CDATA[10 Rue de la Réunion]]></name>
    <trkseg>
      <trkpt lat="43.5586" lon="1.5182">
        <ele>154</ele>
        <time>2014-03-20T12:13:00.605Z</time>
      </trkpt>
      <trkpt lat="43.55823" lon="1.51796">
        <ele>219.7</ele>
        <time>2014-03-20T12:13:05.658Z</time>
      </trkpt>
      <trkpt lat="43.55829" lon="1.51832">
        <ele>210.2</ele>
        <time>2014-03-20T12:13:47.046Z</time>
      </trkpt>
      <trkpt lat="43.55822" lon="1.51822">
        <ele>207</ele>
        <time>2014-03-20T12:15:39.033Z</time>
      </trkpt>
      <trkpt lat="43.55847" lon="1.51801">
        <ele>204</ele>
        <time>2014-03-20T12:15:51.051Z</time>
      </trkpt>
      <trkpt lat="43.5588" lon="1.51841">
        <ele>201.2</ele>
        <time>2014-03-20T12:16:03.034Z</time>
      </trkpt>
      <trkpt lat="43.55879" lon="1.51906">
        <ele>199.8</ele>
        <time>2014-03-20T12:16:20.051Z</time>
      </trkpt>
      <trkpt lat="43.55934" lon="1.51901">
        <ele>201.7</ele>
        <time>2014-03-20T12:16:32.065Z</time>
      </trkpt>
      <trkpt lat="43.56061" lon="1.51761">
        <ele>197.5</ele>
        <time>2014-03-20T12:17:05.999Z</time>
      </trkpt>
      <trkpt lat="43.56182" lon="1.51866">
        <ele>202.5</ele>
        <time>2014-03-20T12:17:35.066Z</time>
      </trkpt>
      <trkpt lat="43.56238" lon="1.5193">
        <ele>198.2</ele>
        <time>2014-03-20T12:17:51.048Z</time>
      </trkpt>
      <trkpt lat="43.56193" lon="1.52017">
        <ele>197.9</ele>
        <time>2014-03-20T12:18:10.05Z</time>
      </trkpt>
      <trkpt lat="43.56201" lon="1.52044">
        <ele>197.2</ele>
        <time>2014-03-20T12:18:15.091Z</time>
      </trkpt>
      <trkpt lat="43.5624" lon="1.52079">
        <ele>200.7</ele>
        <time>2014-03-20T12:18:24.161Z</time>
      </trkpt>
      <trkpt lat="43.56193" lon="1.52484">
        <ele>195.7</ele>
        <time>2014-03-20T12:19:33.071Z</time>
      </trkpt>
      <trkpt lat="43.5606" lon="1.52908">
        <ele>198.7</ele>
        <time>2014-03-20T12:20:56.066Z</time>
      </trkpt>
      <trkpt lat="43.56077" lon="1.52936">
        <ele>198.4</ele>
        <time>2014-03-20T12:21:02.054Z</time>
      </trkpt>
      <trkpt lat="43.56281" lon="1.53039">
        <ele>201.3</ele>
        <time>2014-03-20T12:21:36.09Z</time>
      </trkpt>
      <trkpt lat="43.56338" lon="1.53056">
        <ele>200.5</ele>
        <time>2014-03-20T12:21:49.092Z</time>
      </trkpt>
      <trkpt lat="43.56288" lon="1.53172">
        <ele>194.5</ele>
        <time>2014-03-20T12:22:11.097Z</time>
      </trkpt>
      <trkpt lat="43.56208" lon="1.53277">
        <ele>190.5</ele>
        <time>2014-03-20T12:22:40.179Z</time>
      </trkpt>
      <trkpt lat="43.56128" lon="1.53438">
        <ele>188.9</ele>
        <time>2014-03-20T12:23:17.094Z</time>
      </trkpt>
      <trkpt lat="43.56093" lon="1.53563">
        <ele>191.3</ele>
        <time>2014-03-20T12:23:39.106Z</time>
      </trkpt>
      <trkpt lat="43.56008" lon="1.53751">
        <ele>193.4</ele>
        <time>2014-03-20T12:24:23.114Z</time>
      </trkpt>
      <trkpt lat="43.55845" lon="1.54161">
        <ele>191.3</ele>
        <time>2014-03-20T12:25:51.234Z</time>
      </trkpt>
      <trkpt lat="43.55799" lon="1.54201">
        <ele>189.5</ele>
        <time>2014-03-20T12:26:04.084Z</time>
      </trkpt>
      <trkpt lat="43.55623" lon="1.54576">
        <ele>193.9</ele>
        <time>2014-03-20T12:27:34.198Z</time>
      </trkpt>
      <trkpt lat="43.55559" lon="1.54778">
        <ele>195.4</ele>
        <time>2014-03-20T12:28:19.111Z</time>
      </trkpt>
      <trkpt lat="43.55602" lon="1.54804">
        <ele>151.7</ele>
        <time>2014-03-20T12:28:45.08Z</time>
      </trkpt>
      <trkpt lat="43.55683" lon="1.54812">
        <ele>151</ele>
        <time>2014-03-20T12:28:45.937Z</time>
      </trkpt>
      <trkpt lat="43.55648" lon="1.54819">
        <ele>196.7</ele>
        <time>2014-03-20T12:28:46.133Z</time>
      </trkpt>
      <trkpt lat="43.55672" lon="1.54826">
        <ele>151</ele>
        <time>2014-03-20T12:29:07.071Z</time>
      </trkpt>
      <trkpt lat="43.55615" lon="1.54924">
        <ele>192.3</ele>
        <time>2014-03-20T12:29:25.173Z</time>
      </trkpt>
      <trkpt lat="43.55557" lon="1.54977">
        <ele>192.7</ele>
        <time>2014-03-20T12:29:45.076Z</time>
      </trkpt>
      <trkpt lat="43.55545" lon="1.55023">
        <ele>193.1</ele>
        <time>2014-03-20T12:29:53.126Z</time>
      </trkpt>
      <trkpt lat="43.55541" lon="1.55182">
        <ele>194.2</ele>
        <time>2014-03-20T12:30:25.074Z</time>
      </trkpt>
      <trkpt lat="43.55449" lon="1.55387">
        <ele>188.9</ele>
        <time>2014-03-20T12:31:18.049Z</time>
      </trkpt>
      <trkpt lat="43.55498" lon="1.55458">
        <ele>190</ele>
        <time>2014-03-20T12:31:36.097Z</time>
      </trkpt>
      <trkpt lat="43.55462" lon="1.55575">
        <ele>196.8</ele>
        <time>2014-03-20T12:31:59.845Z</time>
      </trkpt>
      <trkpt lat="43.55434" lon="1.55732">
        <ele>201</ele>
        <time>2014-03-20T12:32:33.09Z</time>
      </trkpt>
      <trkpt lat="43.55339" lon="1.55995">
        <ele>197.9</ele>
        <time>2014-03-20T12:33:29.067Z</time>
      </trkpt>
      <trkpt lat="43.55357" lon="1.56049">
        <ele>162.6</ele>
        <time>2014-03-20T12:33:56.082Z</time>
      </trkpt>
      <trkpt lat="43.55292" lon="1.56128">
        <ele>196.7</ele>
        <time>2014-03-20T12:33:57.069Z</time>
      </trkpt>
      <trkpt lat="43.55228" lon="1.56287">
        <ele>200.7</ele>
        <time>2014-03-20T12:34:34.111Z</time>
      </trkpt>
      <trkpt lat="43.55192" lon="1.56426">
        <ele>204.3</ele>
        <time>2014-03-20T12:35:05.11Z</time>
      </trkpt>
      <trkpt lat="43.55143" lon="1.5655">
        <ele>208.8</ele>
        <time>2014-03-20T12:35:38.076Z</time>
      </trkpt>
      <trkpt lat="43.55088" lon="1.56642">
        <ele>213.2</ele>
        <time>2014-03-20T12:36:02.12Z</time>
      </trkpt>
      <trkpt lat="43.55039" lon="1.56655">
        <ele>216.3</ele>
        <time>2014-03-20T12:36:16.089Z</time>
      </trkpt>
      <trkpt lat="43.54974" lon="1.56637">
        <ele>209.7</ele>
        <time>2014-03-20T12:36:31.106Z</time>
      </trkpt>
      <trkpt lat="43.54905" lon="1.56687">
        <ele>207</ele>
        <time>2014-03-20T12:36:49.065Z</time>
      </trkpt>
      <trkpt lat="43.54862" lon="1.56701">
        <ele>206.2</ele>
        <time>2014-03-20T12:37:02.053Z</time>
      </trkpt>
      <trkpt lat="43.54802" lon="1.5687">
        <ele>202.6</ele>
        <time>2014-03-20T12:37:41.099Z</time>
      </trkpt>
      <trkpt lat="43.54786" lon="1.56991">
        <ele>199.9</ele>
        <time>2014-03-20T12:38:05.168Z</time>
      </trkpt>
      <trkpt lat="43.54754" lon="1.57081">
        <ele>201.2</ele>
        <time>2014-03-20T12:38:25.098Z</time>
      </trkpt>
      <trkpt lat="43.54547" lon="1.57434">
        <ele>203.7</ele>
        <time>2014-03-20T12:40:06.278Z</time>
      </trkpt>
      <trkpt lat="43.54466" lon="1.57598">
        <ele>206</ele>
        <time>2014-03-20T12:40:55.113Z</time>
      </trkpt>
      <trkpt lat="43.54391" lon="1.57699">
        <ele>206.5</ele>
        <time>2014-03-20T12:41:32.101Z</time>
      </trkpt>
      <trkpt lat="43.54299" lon="1.57943">
        <ele>207.4</ele>
        <time>2014-03-20T12:42:36.098Z</time>
      </trkpt>
      <trkpt lat="43.54301" lon="1.58003">
        <ele>206.9</ele>
        <time>2014-03-20T12:42:50.07Z</time>
      </trkpt>
      <trkpt lat="43.54263" lon="1.58069">
        <ele>202.9</ele>
        <time>2014-03-20T12:43:05.066Z</time>
      </trkpt>
      <trkpt lat="43.54079" lon="1.58265">
        <ele>213</ele>
        <time>2014-03-20T12:44:07.071Z</time>
      </trkpt>
      <trkpt lat="43.54026" lon="1.58375">
        <ele>212.3</ele>
        <time>2014-03-20T12:44:38.106Z</time>
      </trkpt>
      <trkpt lat="43.53864" lon="1.58592">
        <ele>210.5</ele>
        <time>2014-03-20T12:45:55.072Z</time>
      </trkpt>
      <trkpt lat="43.53786" lon="1.58747">
        <ele>209.8</ele>
        <time>2014-03-20T12:46:43.094Z</time>
      </trkpt>
      <trkpt lat="43.53677" lon="1.58914">
        <ele>212.1</ele>
        <time>2014-03-20T12:47:41.07Z</time>
      </trkpt>
      <trkpt lat="43.53617" lon="1.58985">
        <ele>212.8</ele>
        <time>2014-03-20T12:48:09.125Z</time>
      </trkpt>
      <trkpt lat="43.53575" lon="1.59016">
        <ele>212.8</ele>
        <time>2014-03-20T12:48:25.128Z</time>
      </trkpt>
      <trkpt lat="43.53483" lon="1.59137">
        <ele>212.6</ele>
        <time>2014-03-20T12:49:05.123Z</time>
      </trkpt>
      <trkpt lat="43.53373" lon="1.59356">
        <ele>212.1</ele>
        <time>2014-03-20T12:50:08.113Z</time>
      </trkpt>
      <trkpt lat="43.53292" lon="1.59479">
        <ele>211</ele>
        <time>2014-03-20T12:50:49.978Z</time>
      </trkpt>
      <trkpt lat="43.5327" lon="1.59477">
        <ele>210.9</ele>
        <time>2014-03-20T12:50:57.537Z</time>
      </trkpt>
      <trkpt lat="43.53235" lon="1.59449">
        <ele>211.4</ele>
        <time>2014-03-20T12:51:10.099Z</time>
      </trkpt>
      <trkpt lat="43.53178" lon="1.59375">
        <ele>211.8</ele>
        <time>2014-03-20T12:51:32.129Z</time>
      </trkpt>
      <trkpt lat="43.5308" lon="1.5928">
        <ele>163.9</ele>
        <time>2014-03-20T12:52:14.142Z</time>
      </trkpt>
      <trkpt lat="43.52982" lon="1.59293">
        <ele>205.6</ele>
        <time>2014-03-20T12:52:40.067Z</time>
      </trkpt>
      <trkpt lat="43.52939" lon="1.59362">
        <ele>207.5</ele>
        <time>2014-03-20T12:52:59.149Z</time>
      </trkpt>
      <trkpt lat="43.52825" lon="1.59705">
        <ele>205.8</ele>
        <time>2014-03-20T12:54:15.088Z</time>
      </trkpt>
      <trkpt lat="43.52418" lon="1.60256">
        <ele>212.1</ele>
        <time>2014-03-20T12:57:21.176Z</time>
      </trkpt>
      <trkpt lat="43.52235" lon="1.60456">
        <ele>214.9</ele>
        <time>2014-03-20T12:58:44.109Z</time>
      </trkpt>
      <trkpt lat="43.52148" lon="1.60627">
        <ele>213.7</ele>
        <time>2014-03-20T12:59:28.13Z</time>
      </trkpt>
      <trkpt lat="43.52071" lon="1.60742">
        <ele>213.9</ele>
        <time>2014-03-20T13:00:10.282Z</time>
      </trkpt>
      <trkpt lat="43.51987" lon="1.60822">
        <ele>218.2</ele>
        <time>2014-03-20T13:00:50.293Z</time>
      </trkpt>
      <trkpt lat="43.51976" lon="1.60863">
        <ele>218.4</ele>
        <time>2014-03-20T13:01:02.126Z</time>
      </trkpt>
      <trkpt lat="43.51813" lon="1.61107">
        <ele>218.7</ele>
        <time>2014-03-20T13:02:33.078Z</time>
      </trkpt>
      <trkpt lat="43.51679" lon="1.61098">
        <ele>226.4</ele>
        <time>2014-03-20T13:03:38.117Z</time>
      </trkpt>
      <trkpt lat="43.51434" lon="1.61153">
        <ele>242.6</ele>
        <time>2014-03-20T13:06:05.091Z</time>
      </trkpt>
      <trkpt lat="43.51303" lon="1.61252">
        <ele>248.9</ele>
        <time>2014-03-20T13:07:26.135Z</time>
      </trkpt>
      <trkpt lat="43.51085" lon="1.61574">
        <ele>257.9</ele>
        <time>2014-03-20T13:09:44.862Z</time>
      </trkpt>
      <trkpt lat="43.50818" lon="1.61861">
        <ele>268.6</ele>
        <time>2014-03-20T13:11:45.134Z</time>
      </trkpt>
      <trkpt lat="43.50783" lon="1.61862">
        <ele>271.8</ele>
        <time>2014-03-20T13:11:53.098Z</time>
      </trkpt>
      <trkpt lat="43.50747" lon="1.61846">
        <ele>273.5</ele>
        <time>2014-03-20T13:11:59.193Z</time>
      </trkpt>
      <trkpt lat="43.50661" lon="1.61764">
        <ele>263.8</ele>
        <time>2014-03-20T13:12:14.145Z</time>
      </trkpt>
      <trkpt lat="43.50631" lon="1.61773">
        <ele>263.2</ele>
        <time>2014-03-20T13:12:21.101Z</time>
      </trkpt>
      <trkpt lat="43.50585" lon="1.61734">
        <ele>262.4</ele>
        <time>2014-03-20T13:12:49.151Z</time>
      </trkpt>
      <trkpt lat="43.5052" lon="1.61704">
        <ele>263.4</ele>
        <time>2014-03-20T13:13:33.087Z</time>
      </trkpt>
      <trkpt lat="43.50385" lon="1.61712">
        <ele>268.1</ele>
        <time>2014-03-20T13:14:47.087Z</time>
      </trkpt>
      <trkpt lat="43.50323" lon="1.61671">
        <ele>276.1</ele>
        <time>2014-03-20T13:15:58.148Z</time>
      </trkpt>
      <trkpt lat="43.5027" lon="1.61605">
        <ele>281.7</ele>
        <time>2014-03-20T13:17:02.141Z</time>
      </trkpt>
      <trkpt lat="43.50268" lon="1.6159">
        <ele>281.8</ele>
        <time>2014-03-20T13:17:03.131Z</time>
      </trkpt>
      <trkpt lat="43.50318" lon="1.61487">
        <ele>239.5</ele>
        <time>2014-03-20T13:17:57.902Z</time>
      </trkpt>
      <trkpt lat="43.50294" lon="1.61395">
        <ele>292</ele>
        <time>2014-03-20T13:18:13.143Z</time>
      </trkpt>
      <trkpt lat="43.5033" lon="1.61273">
        <ele>290.6</ele>
        <time>2014-03-20T13:18:31.126Z</time>
      </trkpt>
      <trkpt lat="43.50337" lon="1.61126">
        <ele>291.9</ele>
        <time>2014-03-20T13:18:51.195Z</time>
      </trkpt>
      <trkpt lat="43.50386" lon="1.60968">
        <ele>283</ele>
        <time>2014-03-20T13:19:07.116Z</time>
      </trkpt>
      <trkpt lat="43.50399" lon="1.60874">
        <ele>280.5</ele>
        <time>2014-03-20T13:19:20.076Z</time>
      </trkpt>
      <trkpt lat="43.50319" lon="1.60839">
        <ele>275.6</ele>
        <time>2014-03-20T13:19:37.13Z</time>
      </trkpt>
      <trkpt lat="43.50228" lon="1.60695">
        <ele>279.8</ele>
        <time>2014-03-20T13:20:07.142Z</time>
      </trkpt>
      <trkpt lat="43.50157" lon="1.60639">
        <ele>278.4</ele>
        <time>2014-03-20T13:20:18.123Z</time>
      </trkpt>
      <trkpt lat="43.50153" lon="1.6052">
        <ele>274.2</ele>
        <time>2014-03-20T13:20:35.121Z</time>
      </trkpt>
      <trkpt lat="43.50111" lon="1.60452">
        <ele>267.3</ele>
        <time>2014-03-20T13:20:45.143Z</time>
      </trkpt>
      <trkpt lat="43.50072" lon="1.60427">
        <ele>261.6</ele>
        <time>2014-03-20T13:20:51.16Z</time>
      </trkpt>
      <trkpt lat="43.49925" lon="1.60408">
        <ele>250.1</ele>
        <time>2014-03-20T13:21:08.143Z</time>
      </trkpt>
      <trkpt lat="43.49876" lon="1.60387">
        <ele>251.4</ele>
        <time>2014-03-20T13:21:13.138Z</time>
      </trkpt>
      <trkpt lat="43.49832" lon="1.60351">
        <ele>253</ele>
        <time>2014-03-20T13:21:18.137Z</time>
      </trkpt>
      <trkpt lat="43.49721" lon="1.60179">
        <ele>250.2</ele>
        <time>2014-03-20T13:21:45.254Z</time>
      </trkpt>
      <trkpt lat="43.49778" lon="1.60121">
        <ele>241.4</ele>
        <time>2014-03-20T13:21:56.204Z</time>
      </trkpt>
      <trkpt lat="43.49873" lon="1.59489">
        <ele>240.4</ele>
        <time>2014-03-20T13:23:17.15Z</time>
      </trkpt>
      <trkpt lat="43.49894" lon="1.59271">
        <ele>239.1</ele>
        <time>2014-03-20T13:23:50.2Z</time>
      </trkpt>
      <trkpt lat="43.49892" lon="1.59069">
        <ele>241.2</ele>
        <time>2014-03-20T13:24:22.088Z</time>
      </trkpt>
      <trkpt lat="43.49909" lon="1.59012">
        <ele>240.1</ele>
        <time>2014-03-20T13:24:34.122Z</time>
      </trkpt>
      <trkpt lat="43.49906" lon="1.58881">
        <ele>239.2</ele>
        <time>2014-03-20T13:24:53.134Z</time>
      </trkpt>
      <trkpt lat="43.49917" lon="1.58656">
        <ele>233.5</ele>
        <time>2014-03-20T13:25:24.136Z</time>
      </trkpt>
      <trkpt lat="43.49875" lon="1.58603">
        <ele>235.1</ele>
        <time>2014-03-20T13:25:36.143Z</time>
      </trkpt>
      <trkpt lat="43.49828" lon="1.58575">
        <ele>235</ele>
        <time>2014-03-20T13:25:52.139Z</time>
      </trkpt>
      <trkpt lat="43.49751" lon="1.58605">
        <ele>237</ele>
        <time>2014-03-20T13:26:14.872Z</time>
      </trkpt>
      <trkpt lat="43.49691" lon="1.58592">
        <ele>240.2</ele>
        <time>2014-03-20T13:26:36.138Z</time>
      </trkpt>
      <trkpt lat="43.49554" lon="1.58592">
        <ele>242.3</ele>
        <time>2014-03-20T13:27:07.144Z</time>
      </trkpt>
      <trkpt lat="43.49486" lon="1.58544">
        <ele>240.7</ele>
        <time>2014-03-20T13:27:31.175Z</time>
      </trkpt>
      <trkpt lat="43.49333" lon="1.5838">
        <ele>244.9</ele>
        <time>2014-03-20T13:28:50.33Z</time>
      </trkpt>
      <trkpt lat="43.49273" lon="1.58341">
        <ele>246.8</ele>
        <time>2014-03-20T13:29:12.128Z</time>
      </trkpt>
      <trkpt lat="43.49227" lon="1.5838">
        <ele>251.1</ele>
        <time>2014-03-20T13:29:27.104Z</time>
      </trkpt>
      <trkpt lat="43.4916" lon="1.58355">
        <ele>244.4</ele>
        <time>2014-03-20T13:29:44.143Z</time>
      </trkpt>
      <trkpt lat="43.48683" lon="1.57886">
        <ele>244.6</ele>
        <time>2014-03-20T13:32:15.108Z</time>
      </trkpt>
      <trkpt lat="43.48675" lon="1.57893">
        <ele>245.2</ele>
        <time>2014-03-20T13:32:19.147Z</time>
      </trkpt>
      <trkpt lat="43.48642" lon="1.58142">
        <ele>189.7</ele>
        <time>2014-03-20T13:33:21.148Z</time>
      </trkpt>
      <trkpt lat="43.48595" lon="1.58278">
        <ele>190</ele>
        <time>2014-03-20T13:34:10.103Z</time>
      </trkpt>
      <trkpt lat="43.48569" lon="1.58274">
        <ele>240.2</ele>
        <time>2014-03-20T13:34:11.09Z</time>
      </trkpt>
      <trkpt lat="43.48476" lon="1.58168">
        <ele>250.5</ele>
        <time>2014-03-20T13:34:56.105Z</time>
      </trkpt>
      <trkpt lat="43.48452" lon="1.58067">
        <ele>258.8</ele>
        <time>2014-03-20T13:35:38.144Z</time>
      </trkpt>
      <trkpt lat="43.48447" lon="1.58">
        <ele>265</ele>
        <time>2014-03-20T13:36:07.138Z</time>
      </trkpt>
      <trkpt lat="43.48462" lon="1.57963">
        <ele>266.1</ele>
        <time>2014-03-20T13:36:22.148Z</time>
      </trkpt>
      <trkpt lat="43.48488" lon="1.57824">
        <ele>265.1</ele>
        <time>2014-03-20T13:37:20.109Z</time>
      </trkpt>
      <trkpt lat="43.48417" lon="1.57755">
        <ele>273.9</ele>
        <time>2014-03-20T13:38:03.268Z</time>
      </trkpt>
      <trkpt lat="43.48333" lon="1.5772">
        <ele>281.6</ele>
        <time>2014-03-20T13:38:25.12Z</time>
      </trkpt>
      <trkpt lat="43.48258" lon="1.57656">
        <ele>278.8</ele>
        <time>2014-03-20T13:38:42.168Z</time>
      </trkpt>
      <trkpt lat="43.48191" lon="1.57745">
        <ele>267.6</ele>
        <time>2014-03-20T13:39:07.106Z</time>
      </trkpt>
      <trkpt lat="43.48133" lon="1.57737">
        <ele>259.8</ele>
        <time>2014-03-20T13:39:17.123Z</time>
      </trkpt>
      <trkpt lat="43.48058" lon="1.57685">
        <ele>246</ele>
        <time>2014-03-20T13:39:32.097Z</time>
      </trkpt>
      <trkpt lat="43.48014" lon="1.57715">
        <ele>243.4</ele>
        <time>2014-03-20T13:39:41.125Z</time>
      </trkpt>
      <trkpt lat="43.47983" lon="1.57714">
        <ele>243.7</ele>
        <time>2014-03-20T13:39:47.094Z</time>
      </trkpt>
      <trkpt lat="43.47891" lon="1.576">
        <ele>225.3</ele>
        <time>2014-03-20T13:40:16.143Z</time>
      </trkpt>
      <trkpt lat="43.47875" lon="1.57602">
        <ele>224.2</ele>
        <time>2014-03-20T13:40:23.42Z</time>
      </trkpt>
      <trkpt lat="43.47748" lon="1.57766">
        <ele>209.5</ele>
        <time>2014-03-20T13:41:05.117Z</time>
      </trkpt>
      <trkpt lat="43.47403" lon="1.57464">
        <ele>209.7</ele>
        <time>2014-03-20T13:42:35.353Z</time>
      </trkpt>
      <trkpt lat="43.47272" lon="1.57382">
        <ele>155</ele>
        <time>2014-03-20T13:43:20.269Z</time>
      </trkpt>
      <trkpt lat="43.47266" lon="1.57381">
        <ele>155</ele>
        <time>2014-03-20T13:43:42.457Z</time>
      </trkpt>
      <trkpt lat="43.47096" lon="1.57304">
        <ele>209</ele>
        <time>2014-03-20T13:43:43.114Z</time>
      </trkpt>
      <trkpt lat="43.4707" lon="1.57292">
        <ele>208.2</ele>
        <time>2014-03-20T13:43:49.106Z</time>
      </trkpt>
      <trkpt lat="43.46895" lon="1.57242">
        <ele>208.1</ele>
        <time>2014-03-20T13:44:26.157Z</time>
      </trkpt>
      <trkpt lat="43.46654" lon="1.57111">
        <ele>217.7</ele>
        <time>2014-03-20T13:45:37.104Z</time>
      </trkpt>
      <trkpt lat="43.46612" lon="1.57101">
        <ele>218.1</ele>
        <time>2014-03-20T13:45:46.11Z</time>
      </trkpt>
      <trkpt lat="43.46444" lon="1.56975">
        <ele>212.3</ele>
        <time>2014-03-20T13:46:26.161Z</time>
      </trkpt>
      <trkpt lat="43.46313" lon="1.57081">
        <ele>156.7</ele>
        <time>2014-03-20T13:47:04.178Z</time>
      </trkpt>
      <trkpt lat="43.46334" lon="1.57071">
        <ele>156</ele>
        <time>2014-03-20T13:47:29.125Z</time>
      </trkpt>
      <trkpt lat="43.46274" lon="1.57026">
        <ele>158.2</ele>
        <time>2014-03-20T13:48:29.119Z</time>
      </trkpt>
      <trkpt lat="43.46189" lon="1.57111">
        <ele>161.2</ele>
        <time>2014-03-20T13:48:33.119Z</time>
      </trkpt>
      <trkpt lat="43.4616" lon="1.57058">
        <ele>163</ele>
        <time>2014-03-20T13:48:58.126Z</time>
      </trkpt>
      <trkpt lat="43.46003" lon="1.56929">
        <ele>173.1</ele>
        <time>2014-03-20T13:50:02.1Z</time>
      </trkpt>
      <trkpt lat="43.45967" lon="1.5685">
        <ele>217.5</ele>
        <time>2014-03-20T13:50:20.163Z</time>
      </trkpt>
      <trkpt lat="43.45894" lon="1.56613">
        <ele>188</ele>
        <time>2014-03-20T13:52:12.104Z</time>
      </trkpt>
      <trkpt lat="43.45888" lon="1.56566">
        <ele>189.6</ele>
        <time>2014-03-20T13:52:16.39Z</time>
      </trkpt>
      <trkpt lat="43.45819" lon="1.5643">
        <ele>196.3</ele>
        <time>2014-03-20T13:53:05.117Z</time>
      </trkpt>
      <trkpt lat="43.45839" lon="1.56238">
        <ele>237</ele>
        <time>2014-03-20T13:53:06.125Z</time>
      </trkpt>
      <trkpt lat="43.4594" lon="1.55942">
        <ele>224.5</ele>
        <time>2014-03-20T13:53:37.16Z</time>
      </trkpt>
      <trkpt lat="43.46003" lon="1.55786">
        <ele>217.1</ele>
        <time>2014-03-20T13:54:02.16Z</time>
      </trkpt>
      <trkpt lat="43.45979" lon="1.55657">
        <ele>224.5</ele>
        <time>2014-03-20T13:54:26.14Z</time>
      </trkpt>
      <trkpt lat="43.4593" lon="1.55526">
        <ele>221.6</ele>
        <time>2014-03-20T13:54:59.16Z</time>
      </trkpt>
      <trkpt lat="43.45912" lon="1.55438">
        <ele>220.7</ele>
        <time>2014-03-20T13:55:18.15Z</time>
      </trkpt>
      <trkpt lat="43.45941" lon="1.5532">
        <ele>221.4</ele>
        <time>2014-03-20T13:55:50.317Z</time>
      </trkpt>
      <trkpt lat="43.45833" lon="1.55156">
        <ele>222.5</ele>
        <time>2014-03-20T13:56:56.242Z</time>
      </trkpt>
      <trkpt lat="43.45786" lon="1.54995">
        <ele>217.5</ele>
        <time>2014-03-20T13:58:04.124Z</time>
      </trkpt>
      <trkpt lat="43.45789" lon="1.54941">
        <ele>225.1</ele>
        <time>2014-03-20T13:58:37.172Z</time>
      </trkpt>
      <trkpt lat="43.45814" lon="1.5485">
        <ele>243.4</ele>
        <time>2014-03-20T13:59:48.127Z</time>
      </trkpt>
      <trkpt lat="43.45822" lon="1.54755">
        <ele>256.1</ele>
        <time>2014-03-20T14:00:43.112Z</time>
      </trkpt>
      <trkpt lat="43.45811" lon="1.54494">
        <ele>269.4</ele>
        <time>2014-03-20T14:03:17.16Z</time>
      </trkpt>
      <trkpt lat="43.45795" lon="1.54386">
        <ele>276.8</ele>
        <time>2014-03-20T14:04:13.188Z</time>
      </trkpt>
      <trkpt lat="43.45812" lon="1.54251">
        <ele>281.4</ele>
        <time>2014-03-20T14:04:57.158Z</time>
      </trkpt>
      <trkpt lat="43.4588" lon="1.54093">
        <ele>282</ele>
        <time>2014-03-20T14:05:17.171Z</time>
      </trkpt>
      <trkpt lat="43.4592" lon="1.53949">
        <ele>274.7</ele>
        <time>2014-03-20T14:05:35.142Z</time>
      </trkpt>
      <trkpt lat="43.45982" lon="1.53802">
        <ele>266.1</ele>
        <time>2014-03-20T14:06:04.907Z</time>
      </trkpt>
      <trkpt lat="43.45984" lon="1.5375">
        <ele>260.8</ele>
        <time>2014-03-20T14:06:12.107Z</time>
      </trkpt>
      <trkpt lat="43.46043" lon="1.5356">
        <ele>254.3</ele>
        <time>2014-03-20T14:07:13.226Z</time>
      </trkpt>
      <trkpt lat="43.46043" lon="1.5353">
        <ele>253.8</ele>
        <time>2014-03-20T14:07:25.163Z</time>
      </trkpt>
      <trkpt lat="43.46076" lon="1.53434">
        <ele>250.2</ele>
        <time>2014-03-20T14:07:56.171Z</time>
      </trkpt>
      <trkpt lat="43.46111" lon="1.53381">
        <ele>246.2</ele>
        <time>2014-03-20T14:08:14.136Z</time>
      </trkpt>
      <trkpt lat="43.46157" lon="1.53232">
        <ele>241.7</ele>
        <time>2014-03-20T14:09:35.097Z</time>
      </trkpt>
      <trkpt lat="43.46176" lon="1.53199">
        <ele>239.8</ele>
        <time>2014-03-20T14:09:47.122Z</time>
      </trkpt>
      <trkpt lat="43.46167" lon="1.53143">
        <ele>236.6</ele>
        <time>2014-03-20T14:09:59.167Z</time>
      </trkpt>
      <trkpt lat="43.46311" lon="1.5304">
        <ele>232.9</ele>
        <time>2014-03-20T14:10:54.624Z</time>
      </trkpt>
      <trkpt lat="43.46348" lon="1.53026">
        <ele>232</ele>
        <time>2014-03-20T14:11:02.154Z</time>
      </trkpt>
      <trkpt lat="43.46342" lon="1.53016">
        <ele>232.2</ele>
        <time>2014-03-20T14:11:09.169Z</time>
      </trkpt>
      <trkpt lat="43.46352" lon="1.52977">
        <ele>233.7</ele>
        <time>2014-03-20T14:11:26.157Z</time>
      </trkpt>
      <trkpt lat="43.46326" lon="1.52906">
        <ele>233.2</ele>
        <time>2014-03-20T14:11:43.146Z</time>
      </trkpt>
      <trkpt lat="43.46323" lon="1.52859">
        <ele>232.3</ele>
        <time>2014-03-20T14:11:55.151Z</time>
      </trkpt>
      <trkpt lat="43.46293" lon="1.52774">
        <ele>235.4</ele>
        <time>2014-03-20T14:12:26.152Z</time>
      </trkpt>
      <trkpt lat="43.46264" lon="1.52723">
        <ele>238.3</ele>
        <time>2014-03-20T14:12:54.161Z</time>
      </trkpt>
      <trkpt lat="43.46241" lon="1.52719">
        <ele>241.7</ele>
        <time>2014-03-20T14:13:05.184Z</time>
      </trkpt>
      <trkpt lat="43.46227" lon="1.52701">
        <ele>244</ele>
        <time>2014-03-20T14:13:21.133Z</time>
      </trkpt>
      <trkpt lat="43.46156" lon="1.52666">
        <ele>251.1</ele>
        <time>2014-03-20T14:14:16.16Z</time>
      </trkpt>
      <trkpt lat="43.46151" lon="1.52677">
        <ele>259.7</ele>
        <time>2014-03-20T14:17:57.224Z</time>
      </trkpt>
      <trkpt lat="43.46157" lon="1.52667">
        <ele>259.5</ele>
        <time>2014-03-20T14:18:56.169Z</time>
      </trkpt>
      <trkpt lat="43.46113" lon="1.52641">
        <ele>258.1</ele>
        <time>2014-03-20T14:19:57.169Z</time>
      </trkpt>
      <trkpt lat="43.45977" lon="1.52598">
        <ele>276</ele>
        <time>2014-03-20T14:22:10.214Z</time>
      </trkpt>
      <trkpt lat="43.45922" lon="1.5255">
        <ele>278.8</ele>
        <time>2014-03-20T14:22:43.125Z</time>
      </trkpt>
      <trkpt lat="43.45899" lon="1.52507">
        <ele>281.3</ele>
        <time>2014-03-20T14:23:09.95Z</time>
      </trkpt>
      <trkpt lat="43.45766" lon="1.52353">
        <ele>311</ele>
        <time>2014-03-20T14:25:55.139Z</time>
      </trkpt>
      <trkpt lat="43.4574" lon="1.52272">
        <ele>319</ele>
        <time>2014-03-20T14:26:54.226Z</time>
      </trkpt>
      <trkpt lat="43.45788" lon="1.52101">
        <ele>322</ele>
        <time>2014-03-20T14:27:31.159Z</time>
      </trkpt>
      <trkpt lat="43.45843" lon="1.52022">
        <ele>327.9</ele>
        <time>2014-03-20T14:27:50.375Z</time>
      </trkpt>
      <trkpt lat="43.4589" lon="1.51925">
        <ele>330.5</ele>
        <time>2014-03-20T14:28:12.16Z</time>
      </trkpt>
      <trkpt lat="43.46016" lon="1.51875">
        <ele>320.3</ele>
        <time>2014-03-20T14:28:27.159Z</time>
      </trkpt>
      <trkpt lat="43.46124" lon="1.51864">
        <ele>315.7</ele>
        <time>2014-03-20T14:28:34.511Z</time>
      </trkpt>
      <trkpt lat="43.46359" lon="1.51899">
        <ele>307.3</ele>
        <time>2014-03-20T14:29:05.173Z</time>
      </trkpt>
      <trkpt lat="43.46444" lon="1.51884">
        <ele>307.4</ele>
        <time>2014-03-20T14:29:25.179Z</time>
      </trkpt>
      <trkpt lat="43.46559" lon="1.52">
        <ele>307.5</ele>
        <time>2014-03-20T14:29:58.17Z</time>
      </trkpt>
      <trkpt lat="43.46575" lon="1.51975">
        <ele>308.5</ele>
        <time>2014-03-20T14:30:05.132Z</time>
      </trkpt>
      <trkpt lat="43.46609" lon="1.51774">
        <ele>301.9</ele>
        <time>2014-03-20T14:30:24.17Z</time>
      </trkpt>
      <trkpt lat="43.4665" lon="1.51713">
        <ele>298.7</ele>
        <time>2014-03-20T14:30:32.141Z</time>
      </trkpt>
      <trkpt lat="43.46697" lon="1.5146">
        <ele>292.7</ele>
        <time>2014-03-20T14:30:58.171Z</time>
      </trkpt>
      <trkpt lat="43.46725" lon="1.51371">
        <ele>288.7</ele>
        <time>2014-03-20T14:31:08.272Z</time>
      </trkpt>
      <trkpt lat="43.4684" lon="1.51152">
        <ele>275.6</ele>
        <time>2014-03-20T14:31:46.118Z</time>
      </trkpt>
      <trkpt lat="43.46861" lon="1.51033">
        <ele>273.6</ele>
        <time>2014-03-20T14:32:00.137Z</time>
      </trkpt>
      <trkpt lat="43.47037" lon="1.50606">
        <ele>262.8</ele>
        <time>2014-03-20T14:33:29.136Z</time>
      </trkpt>
      <trkpt lat="43.47101" lon="1.50293">
        <ele>259.8</ele>
        <time>2014-03-20T14:35:07.178Z</time>
      </trkpt>
      <trkpt lat="43.47084" lon="1.50169">
        <ele>258.2</ele>
        <time>2014-03-20T14:35:29.203Z</time>
      </trkpt>
      <trkpt lat="43.47095" lon="1.50002">
        <ele>250.3</ele>
        <time>2014-03-20T14:35:55.143Z</time>
      </trkpt>
      <trkpt lat="43.47067" lon="1.49946">
        <ele>249.4</ele>
        <time>2014-03-20T14:36:03.137Z</time>
      </trkpt>
      <trkpt lat="43.47073" lon="1.49806">
        <ele>252.5</ele>
        <time>2014-03-20T14:36:24.144Z</time>
      </trkpt>
      <trkpt lat="43.4706" lon="1.49759">
        <ele>205.9</ele>
        <time>2014-03-20T14:36:45.391Z</time>
      </trkpt>
      <trkpt lat="43.47116" lon="1.49546">
        <ele>251.8</ele>
        <time>2014-03-20T14:37:08.122Z</time>
      </trkpt>
      <trkpt lat="43.47229" lon="1.49566">
        <ele>256.2</ele>
        <time>2014-03-20T14:38:32.223Z</time>
      </trkpt>
      <trkpt lat="43.47266" lon="1.49557">
        <ele>260.5</ele>
        <time>2014-03-20T14:39:09.261Z</time>
      </trkpt>
      <trkpt lat="43.47338" lon="1.49486">
        <ele>277</ele>
        <time>2014-03-20T14:40:29.184Z</time>
      </trkpt>
      <trkpt lat="43.47351" lon="1.49503">
        <ele>279.9</ele>
        <time>2014-03-20T14:40:47.818Z</time>
      </trkpt>
      <trkpt lat="43.47495" lon="1.49512">
        <ele>282.1</ele>
        <time>2014-03-20T14:41:22.257Z</time>
      </trkpt>
      <trkpt lat="43.47632" lon="1.49389">
        <ele>281.4</ele>
        <time>2014-03-20T14:42:15.198Z</time>
      </trkpt>
      <trkpt lat="43.47655" lon="1.49333">
        <ele>283.8</ele>
        <time>2014-03-20T14:42:34.175Z</time>
      </trkpt>
      <trkpt lat="43.4768" lon="1.49173">
        <ele>288.9</ele>
        <time>2014-03-20T14:43:04.174Z</time>
      </trkpt>
      <trkpt lat="43.47722" lon="1.49118">
        <ele>288.2</ele>
        <time>2014-03-20T14:43:12.131Z</time>
      </trkpt>
      <trkpt lat="43.47814" lon="1.49033">
        <ele>290.5</ele>
        <time>2014-03-20T14:43:27.174Z</time>
      </trkpt>
      <trkpt lat="43.47902" lon="1.48887">
        <ele>288.8</ele>
        <time>2014-03-20T14:43:45.131Z</time>
      </trkpt>
      <trkpt lat="43.48052" lon="1.48704">
        <ele>287.6</ele>
        <time>2014-03-20T14:44:26.168Z</time>
      </trkpt>
      <trkpt lat="43.48355" lon="1.48596">
        <ele>255.5</ele>
        <time>2014-03-20T14:45:01.174Z</time>
      </trkpt>
      <trkpt lat="43.48571" lon="1.48492">
        <ele>283.1</ele>
        <time>2014-03-20T14:48:02.161Z</time>
      </trkpt>
      <trkpt lat="43.48677" lon="1.48338">
        <ele>302.6</ele>
        <time>2014-03-20T14:49:58.185Z</time>
      </trkpt>
      <trkpt lat="43.48674" lon="1.4847">
        <ele>308.7</ele>
        <time>2014-03-20T14:50:49.198Z</time>
      </trkpt>
      <trkpt lat="43.48693" lon="1.48534">
        <ele>311.1</ele>
        <time>2014-03-20T14:51:09.195Z</time>
      </trkpt>
      <trkpt lat="43.48763" lon="1.48434">
        <ele>317.6</ele>
        <time>2014-03-20T14:51:52.187Z</time>
      </trkpt>
      <trkpt lat="43.48845" lon="1.48182">
        <ele>326.8</ele>
        <time>2014-03-20T14:52:44.282Z</time>
      </trkpt>
      <trkpt lat="43.48951" lon="1.48028">
        <ele>323</ele>
        <time>2014-03-20T14:53:18.14Z</time>
      </trkpt>
      <trkpt lat="43.48985" lon="1.47947">
        <ele>323.6</ele>
        <time>2014-03-20T14:53:31.14Z</time>
      </trkpt>
      <trkpt lat="43.4903" lon="1.47909">
        <ele>319.6</ele>
        <time>2014-03-20T14:53:41.168Z</time>
      </trkpt>
      <trkpt lat="43.49057" lon="1.47754">
        <ele>316.1</ele>
        <time>2014-03-20T14:54:01.165Z</time>
      </trkpt>
      <trkpt lat="43.48942" lon="1.4767">
        <ele>305.8</ele>
        <time>2014-03-20T14:54:25.217Z</time>
      </trkpt>
      <trkpt lat="43.4896" lon="1.47616">
        <ele>299.8</ele>
        <time>2014-03-20T14:54:38.247Z</time>
      </trkpt>
      <trkpt lat="43.48998" lon="1.47383">
        <ele>236.4</ele>
        <time>2014-03-20T14:55:39.163Z</time>
      </trkpt>
      <trkpt lat="43.49184" lon="1.47244">
        <ele>272.3</ele>
        <time>2014-03-20T14:55:40.156Z</time>
      </trkpt>
      <trkpt lat="43.4923" lon="1.47207">
        <ele>269.1</ele>
        <time>2014-03-20T14:55:49.143Z</time>
      </trkpt>
      <trkpt lat="43.49267" lon="1.47165">
        <ele>262.2</ele>
        <time>2014-03-20T14:55:56.169Z</time>
      </trkpt>
      <trkpt lat="43.49288" lon="1.4712">
        <ele>257.5</ele>
        <time>2014-03-20T14:56:01.178Z</time>
      </trkpt>
      <trkpt lat="43.49409" lon="1.46958">
        <ele>260.3</ele>
        <time>2014-03-20T14:56:32.194Z</time>
      </trkpt>
      <trkpt lat="43.49423" lon="1.46921">
        <ele>261.9</ele>
        <time>2014-03-20T14:56:39.19Z</time>
      </trkpt>
      <trkpt lat="43.49473" lon="1.46883">
        <ele>257</ele>
        <time>2014-03-20T14:56:51.345Z</time>
      </trkpt>
      <trkpt lat="43.49572" lon="1.46835">
        <ele>239.7</ele>
        <time>2014-03-20T14:57:08.144Z</time>
      </trkpt>
      <trkpt lat="43.49595" lon="1.46742">
        <ele>243.1</ele>
        <time>2014-03-20T14:57:20.244Z</time>
      </trkpt>
      <trkpt lat="43.49633" lon="1.46701">
        <ele>247.3</ele>
        <time>2014-03-20T14:57:36.155Z</time>
      </trkpt>
      <trkpt lat="43.49681" lon="1.46681">
        <ele>245.9</ele>
        <time>2014-03-20T14:57:46.27Z</time>
      </trkpt>
      <trkpt lat="43.49838" lon="1.46509">
        <ele>235.8</ele>
        <time>2014-03-20T14:58:26.131Z</time>
      </trkpt>
      <trkpt lat="43.49864" lon="1.46601">
        <ele>236</ele>
        <time>2014-03-20T14:58:48.178Z</time>
      </trkpt>
      <trkpt lat="43.49881" lon="1.46816">
        <ele>252.9</ele>
        <time>2014-03-20T15:00:30.411Z</time>
      </trkpt>
      <trkpt lat="43.49891" lon="1.4685">
        <ele>256.2</ele>
        <time>2014-03-20T15:00:53.411Z</time>
      </trkpt>
      <trkpt lat="43.49986" lon="1.46978">
        <ele>266.8</ele>
        <time>2014-03-20T15:02:12.158Z</time>
      </trkpt>
      <trkpt lat="43.50063" lon="1.47042">
        <ele>268.1</ele>
        <time>2014-03-20T15:03:03.484Z</time>
      </trkpt>
      <trkpt lat="43.50107" lon="1.47127">
        <ele>271.5</ele>
        <time>2014-03-20T15:03:50.413Z</time>
      </trkpt>
      <trkpt lat="43.50112" lon="1.47197">
        <ele>279.9</ele>
        <time>2014-03-20T15:04:29.193Z</time>
      </trkpt>
      <trkpt lat="43.5012" lon="1.47201">
        <ele>281.5</ele>
        <time>2014-03-20T15:04:43.175Z</time>
      </trkpt>
      <trkpt lat="43.50151" lon="1.47023">
        <ele>238.3</ele>
        <time>2014-03-20T15:05:53.148Z</time>
      </trkpt>
      <trkpt lat="43.50242" lon="1.46983">
        <ele>283.2</ele>
        <time>2014-03-20T15:05:54.153Z</time>
      </trkpt>
      <trkpt lat="43.50257" lon="1.47036">
        <ele>282.2</ele>
        <time>2014-03-20T15:06:04.997Z</time>
      </trkpt>
      <trkpt lat="43.50303" lon="1.47128">
        <ele>280.7</ele>
        <time>2014-03-20T15:06:31.189Z</time>
      </trkpt>
      <trkpt lat="43.50305" lon="1.47155">
        <ele>281</ele>
        <time>2014-03-20T15:06:39.159Z</time>
      </trkpt>
      <trkpt lat="43.50283" lon="1.4727">
        <ele>281</ele>
        <time>2014-03-20T15:07:18.206Z</time>
      </trkpt>
      <trkpt lat="43.50479" lon="1.47448">
        <ele>293.2</ele>
        <time>2014-03-20T15:08:48.193Z</time>
      </trkpt>
      <trkpt lat="43.50632" lon="1.47508">
        <ele>303.9</ele>
        <time>2014-03-20T15:09:33.226Z</time>
      </trkpt>
      <trkpt lat="43.50751" lon="1.47442">
        <ele>312.9</ele>
        <time>2014-03-20T15:10:45.18Z</time>
      </trkpt>
      <trkpt lat="43.50788" lon="1.47395">
        <ele>318.8</ele>
        <time>2014-03-20T15:11:10.182Z</time>
      </trkpt>
      <trkpt lat="43.50856" lon="1.47426">
        <ele>322.7</ele>
        <time>2014-03-20T15:11:33.2Z</time>
      </trkpt>
      <trkpt lat="43.50944" lon="1.47432">
        <ele>324</ele>
        <time>2014-03-20T15:11:59.271Z</time>
      </trkpt>
      <trkpt lat="43.51013" lon="1.47362">
        <ele>318</ele>
        <time>2014-03-20T15:12:18.207Z</time>
      </trkpt>
      <trkpt lat="43.51081" lon="1.47268">
        <ele>328.3</ele>
        <time>2014-03-20T15:12:39.191Z</time>
      </trkpt>
      <trkpt lat="43.51181" lon="1.4707">
        <ele>276.8</ele>
        <time>2014-03-20T15:13:35.172Z</time>
      </trkpt>
      <trkpt lat="43.51198" lon="1.47089">
        <ele>277</ele>
        <time>2014-03-20T15:13:44.155Z</time>
      </trkpt>
      <trkpt lat="43.51198" lon="1.47144">
        <ele>275.7</ele>
        <time>2014-03-20T15:13:59.728Z</time>
      </trkpt>
      <trkpt lat="43.51313" lon="1.47289">
        <ele>308.1</ele>
        <time>2014-03-20T15:14:05.216Z</time>
      </trkpt>
      <trkpt lat="43.51408" lon="1.47436">
        <ele>304.4</ele>
        <time>2014-03-20T15:14:38.185Z</time>
      </trkpt>
      <trkpt lat="43.51457" lon="1.47319">
        <ele>306.4</ele>
        <time>2014-03-20T15:14:54.194Z</time>
      </trkpt>
      <trkpt lat="43.51495" lon="1.47306">
        <ele>305.6</ele>
        <time>2014-03-20T15:15:03.19Z</time>
      </trkpt>
      <trkpt lat="43.51487" lon="1.47316">
        <ele>254.1</ele>
        <time>2014-03-20T15:15:14.236Z</time>
      </trkpt>
      <trkpt lat="43.51671" lon="1.47239">
        <ele>304.6</ele>
        <time>2014-03-20T15:15:38.202Z</time>
      </trkpt>
      <trkpt lat="43.5188" lon="1.47206">
        <ele>310.1</ele>
        <time>2014-03-20T15:16:42.271Z</time>
      </trkpt>
      <trkpt lat="43.51965" lon="1.47143">
        <ele>310.2</ele>
        <time>2014-03-20T15:17:10.352Z</time>
      </trkpt>
      <trkpt lat="43.52037" lon="1.47176">
        <ele>313.5</ele>
        <time>2014-03-20T15:17:33.355Z</time>
      </trkpt>
      <trkpt lat="43.52094" lon="1.47187">
        <ele>308.2</ele>
        <time>2014-03-20T15:17:44.398Z</time>
      </trkpt>
      <trkpt lat="43.5214" lon="1.47216">
        <ele>302.4</ele>
        <time>2014-03-20T15:17:53.404Z</time>
      </trkpt>
      <trkpt lat="43.52266" lon="1.47336">
        <ele>289.9</ele>
        <time>2014-03-20T15:18:25.363Z</time>
      </trkpt>
      <trkpt lat="43.52329" lon="1.47251">
        <ele>292.1</ele>
        <time>2014-03-20T15:18:42.356Z</time>
      </trkpt>
      <trkpt lat="43.52356" lon="1.47234">
        <ele>294.9</ele>
        <time>2014-03-20T15:18:48.361Z</time>
      </trkpt>
      <trkpt lat="43.52431" lon="1.47084">
        <ele>294.1</ele>
        <time>2014-03-20T15:19:16.324Z</time>
      </trkpt>
      <trkpt lat="43.5245" lon="1.4707">
        <ele>293.7</ele>
        <time>2014-03-20T15:19:20.343Z</time>
      </trkpt>
      <trkpt lat="43.52493" lon="1.47086">
        <ele>292.4</ele>
        <time>2014-03-20T15:19:26.377Z</time>
      </trkpt>
      <trkpt lat="43.52571" lon="1.47173">
        <ele>288.1</ele>
        <time>2014-03-20T15:19:44.389Z</time>
      </trkpt>
      <trkpt lat="43.5279" lon="1.46845">
        <ele>284.2</ele>
        <time>2014-03-20T15:20:39.343Z</time>
      </trkpt>
      <trkpt lat="43.52844" lon="1.46787">
        <ele>280.4</ele>
        <time>2014-03-20T15:20:48.38Z</time>
      </trkpt>
      <trkpt lat="43.52909" lon="1.4666">
        <ele>264.8</ele>
        <time>2014-03-20T15:21:15.569Z</time>
      </trkpt>
      <trkpt lat="43.52911" lon="1.46625">
        <ele>263.1</ele>
        <time>2014-03-20T15:21:25.381Z</time>
      </trkpt>
      <trkpt lat="43.52865" lon="1.46556">
        <ele>258.7</ele>
        <time>2014-03-20T15:21:42.428Z</time>
      </trkpt>
      <trkpt lat="43.52865" lon="1.46471">
        <ele>254.5</ele>
        <time>2014-03-20T15:22:00.351Z</time>
      </trkpt>
      <trkpt lat="43.52887" lon="1.46429">
        <ele>254.1</ele>
        <time>2014-03-20T15:22:42.528Z</time>
      </trkpt>
      <trkpt lat="43.52973" lon="1.46413">
        <ele>248.8</ele>
        <time>2014-03-20T15:23:11.406Z</time>
      </trkpt>
      <trkpt lat="43.52995" lon="1.4642">
        <ele>246.5</ele>
        <time>2014-03-20T15:23:20.493Z</time>
      </trkpt>
      <trkpt lat="43.53135" lon="1.46396">
        <ele>216.3</ele>
        <time>2014-03-20T15:24:05.432Z</time>
      </trkpt>
      <trkpt lat="43.53153" lon="1.46414">
        <ele>182.5</ele>
        <time>2014-03-20T15:24:10.384Z</time>
      </trkpt>
      <trkpt lat="43.53191" lon="1.46401">
        <ele>182.7</ele>
        <time>2014-03-20T15:24:35.69Z</time>
      </trkpt>
      <trkpt lat="43.53252" lon="1.46306">
        <ele>210.4</ele>
        <time>2014-03-20T15:24:56.343Z</time>
      </trkpt>
      <trkpt lat="43.53279" lon="1.46133">
        <ele>224.7</ele>
        <time>2014-03-20T15:25:19.394Z</time>
      </trkpt>
      <trkpt lat="43.53353" lon="1.46022">
        <ele>228.6</ele>
        <time>2014-03-20T15:26:05.347Z</time>
      </trkpt>
      <trkpt lat="43.53503" lon="1.45897">
        <ele>256.3</ele>
        <time>2014-03-20T15:28:22.404Z</time>
      </trkpt>
      <trkpt lat="43.53546" lon="1.4589">
        <ele>260.3</ele>
        <time>2014-03-20T15:29:02.386Z</time>
      </trkpt>
      <trkpt lat="43.53686" lon="1.45811">
        <ele>279.6</ele>
        <time>2014-03-20T15:31:00.364Z</time>
      </trkpt>
      <trkpt lat="43.53813" lon="1.45712">
        <ele>290.4</ele>
        <time>2014-03-20T15:32:22.352Z</time>
      </trkpt>
      <trkpt lat="43.53998" lon="1.45495">
        <ele>298.3</ele>
        <time>2014-03-20T15:33:51.45Z</time>
      </trkpt>
      <trkpt lat="43.54061" lon="1.45465">
        <ele>300.6</ele>
        <time>2014-03-20T15:34:14.402Z</time>
      </trkpt>
      <trkpt lat="43.54096" lon="1.4547">
        <ele>302.5</ele>
        <time>2014-03-20T15:34:24.362Z</time>
      </trkpt>
      <trkpt lat="43.54114" lon="1.45501">
        <ele>249.9</ele>
        <time>2014-03-20T15:34:37.779Z</time>
      </trkpt>
      <trkpt lat="43.54217" lon="1.45571">
        <ele>290.6</ele>
        <time>2014-03-20T15:34:48.377Z</time>
      </trkpt>
      <trkpt lat="43.54337" lon="1.45689">
        <ele>274.1</ele>
        <time>2014-03-20T15:35:09.391Z</time>
      </trkpt>
      <trkpt lat="43.54347" lon="1.45687">
        <ele>275</ele>
        <time>2014-03-20T15:35:11.387Z</time>
      </trkpt>
      <trkpt lat="43.54515" lon="1.45408">
        <ele>277.6</ele>
        <time>2014-03-20T15:36:12.35Z</time>
      </trkpt>
      <trkpt lat="43.54521" lon="1.45378">
        <ele>277.6</ele>
        <time>2014-03-20T15:36:18.371Z</time>
      </trkpt>
      <trkpt lat="43.54612" lon="1.45306">
        <ele>276.3</ele>
        <time>2014-03-20T15:36:38.368Z</time>
      </trkpt>
      <trkpt lat="43.54636" lon="1.45321">
        <ele>274.3</ele>
        <time>2014-03-20T15:36:43.392Z</time>
      </trkpt>
      <trkpt lat="43.54659" lon="1.45316">
        <ele>276.2</ele>
        <time>2014-03-20T15:36:49.398Z</time>
      </trkpt>
      <trkpt lat="43.54842" lon="1.45386">
        <ele>275.9</ele>
        <time>2014-03-20T15:37:46.405Z</time>
      </trkpt>
      <trkpt lat="43.54857" lon="1.45283">
        <ele>231.2</ele>
        <time>2014-03-20T15:38:25.424Z</time>
      </trkpt>
      <trkpt lat="43.54938" lon="1.45136">
        <ele>231.6</ele>
        <time>2014-03-20T15:38:25.532Z</time>
      </trkpt>
      <trkpt lat="43.54957" lon="1.45007">
        <ele>232.5</ele>
        <time>2014-03-20T15:39:02.291Z</time>
      </trkpt>
      <trkpt lat="43.54957" lon="1.45007">
        <ele>232.5</ele>
        <time>2014-03-20T15:39:35.372Z</time>
      </trkpt>
      <trkpt lat="43.55064" lon="1.44679">
        <ele>275.3</ele>
        <time>2014-03-20T15:39:36.37Z</time>
      </trkpt>
      <trkpt lat="43.55074" lon="1.44653">
        <ele>275.2</ele>
        <time>2014-03-20T15:39:43.427Z</time>
      </trkpt>
      <trkpt lat="43.5514" lon="1.44379">
        <ele>267.1</ele>
        <time>2014-03-20T15:40:16.391Z</time>
      </trkpt>
      <trkpt lat="43.55115" lon="1.44307">
        <ele>263.2</ele>
        <time>2014-03-20T15:40:28.349Z</time>
      </trkpt>
      <trkpt lat="43.55137" lon="1.44252">
        <ele>263.9</ele>
        <time>2014-03-20T15:40:36.385Z</time>
      </trkpt>
      <trkpt lat="43.55189" lon="1.44306">
        <ele>254.4</ele>
        <time>2014-03-20T15:40:49.346Z</time>
      </trkpt>
      <trkpt lat="43.55262" lon="1.44281">
        <ele>256.7</ele>
        <time>2014-03-20T15:41:07.393Z</time>
      </trkpt>
      <trkpt lat="43.55315" lon="1.44279">
        <ele>262.1</ele>
        <time>2014-03-20T15:41:22.384Z</time>
      </trkpt>
      <trkpt lat="43.55377" lon="1.44302">
        <ele>263.3</ele>
        <time>2014-03-20T15:41:40.599Z</time>
      </trkpt>
      <trkpt lat="43.55409" lon="1.44299">
        <ele>264.3</ele>
        <time>2014-03-20T15:41:46.35Z</time>
      </trkpt>
      <trkpt lat="43.55474" lon="1.44359">
        <ele>262</ele>
        <time>2014-03-20T15:42:00.348Z</time>
      </trkpt>
      <trkpt lat="43.55682" lon="1.44486">
        <ele>279.9</ele>
        <time>2014-03-20T15:44:56.367Z</time>
      </trkpt>
      <trkpt lat="43.55694" lon="1.4451">
        <ele>284.1</ele>
        <time>2014-03-20T15:45:18.419Z</time>
      </trkpt>
      <trkpt lat="43.55743" lon="1.44551">
        <ele>291.5</ele>
        <time>2014-03-20T15:46:03.401Z</time>
      </trkpt>
      <trkpt lat="43.55817" lon="1.44585">
        <ele>301.4</ele>
        <time>2014-03-20T15:46:57.407Z</time>
      </trkpt>
      <trkpt lat="43.55855" lon="1.44585">
        <ele>303.1</ele>
        <time>2014-03-20T15:47:13.386Z</time>
      </trkpt>
      <trkpt lat="43.55915" lon="1.44547">
        <ele>303.6</ele>
        <time>2014-03-20T15:47:33.41Z</time>
      </trkpt>
      <trkpt lat="43.55929" lon="1.44572">
        <ele>303.7</ele>
        <time>2014-03-20T15:47:40.411Z</time>
      </trkpt>
      <trkpt lat="43.55925" lon="1.44668">
        <ele>305</ele>
        <time>2014-03-20T15:48:04.369Z</time>
      </trkpt>
      <trkpt lat="43.56035" lon="1.44687">
        <ele>297</ele>
        <time>2014-03-20T15:48:23.41Z</time>
      </trkpt>
      <trkpt lat="43.56068" lon="1.4471">
        <ele>295.1</ele>
        <time>2014-03-20T15:48:53.373Z</time>
      </trkpt>
      <trkpt lat="43.5612" lon="1.44693">
        <ele>294.7</ele>
        <time>2014-03-20T15:49:06.402Z</time>
      </trkpt>
      <trkpt lat="43.56139" lon="1.44708">
        <ele>290.4</ele>
        <time>2014-03-20T15:49:10.393Z</time>
      </trkpt>
      <trkpt lat="43.56174" lon="1.44708">
        <ele>284.5</ele>
        <time>2014-03-20T15:49:17.398Z</time>
      </trkpt>
      <trkpt lat="43.56302" lon="1.44649">
        <ele>284.4</ele>
        <time>2014-03-20T15:49:49.421Z</time>
      </trkpt>
      <trkpt lat="43.56595" lon="1.44405">
        <ele>284.9</ele>
        <time>2014-03-20T15:50:53.933Z</time>
      </trkpt>
      <trkpt lat="43.56631" lon="1.44296">
        <ele>278.3</ele>
        <time>2014-03-20T15:51:06.356Z</time>
      </trkpt>
      <trkpt lat="43.56682" lon="1.44214">
        <ele>274.3</ele>
        <time>2014-03-20T15:51:22.361Z</time>
      </trkpt>
      <trkpt lat="43.56815" lon="1.44232">
        <ele>263.2</ele>
        <time>2014-03-20T15:52:00.243Z</time>
      </trkpt>
      <trkpt lat="43.56936" lon="1.44201">
        <ele>264.6</ele>
        <time>2014-03-20T15:52:26.411Z</time>
      </trkpt>
      <trkpt lat="43.5704" lon="1.44196">
        <ele>261.4</ele>
        <time>2014-03-20T15:52:44.408Z</time>
      </trkpt>
      <trkpt lat="43.57159" lon="1.4415">
        <ele>248.9</ele>
        <time>2014-03-20T15:53:05.367Z</time>
      </trkpt>
      <trkpt lat="43.57303" lon="1.4415">
        <ele>225.8</ele>
        <time>2014-03-20T15:53:32.389Z</time>
      </trkpt>
      <trkpt lat="43.57363" lon="1.44113">
        <ele>172.6</ele>
        <time>2014-03-20T15:53:59.387Z</time>
      </trkpt>
      <trkpt lat="43.57414" lon="1.4414">
        <ele>205.6</ele>
        <time>2014-03-20T15:54:00.405Z</time>
      </trkpt>
      <trkpt lat="43.57501" lon="1.44244">
        <ele>193.5</ele>
        <time>2014-03-20T15:54:22.396Z</time>
      </trkpt>
      <trkpt lat="43.57565" lon="1.44343">
        <ele>193.6</ele>
        <time>2014-03-20T15:54:49.422Z</time>
      </trkpt>
      <trkpt lat="43.57542" lon="1.44448">
        <ele>193.8</ele>
        <time>2014-03-20T15:55:10.452Z</time>
      </trkpt>
      <trkpt lat="43.57505" lon="1.4455">
        <ele>188.7</ele>
        <time>2014-03-20T15:55:32.37Z</time>
      </trkpt>
      <trkpt lat="43.57471" lon="1.44616">
        <ele>146</ele>
        <time>2014-03-20T15:55:51.36Z</time>
      </trkpt>
      <trkpt lat="43.57474" lon="1.44635">
        <ele>145.6</ele>
        <time>2014-03-20T15:56:16.763Z</time>
      </trkpt>
      <trkpt lat="43.57416" lon="1.44802">
        <ele>144.5</ele>
        <time>2014-03-20T15:56:16.885Z</time>
      </trkpt>
      <trkpt lat="43.57304" lon="1.44979">
        <ele>204.1</ele>
        <time>2014-03-20T15:56:57.352Z</time>
      </trkpt>
      <trkpt lat="43.57268" lon="1.44982">
        <ele>148</ele>
        <time>2014-03-20T15:57:30.415Z</time>
      </trkpt>
      <trkpt lat="43.57203" lon="1.45016">
        <ele>148.8</ele>
        <time>2014-03-20T15:57:31.364Z</time>
      </trkpt>
      <trkpt lat="43.57167" lon="1.45006">
        <ele>150</ele>
        <time>2014-03-20T15:57:40.369Z</time>
      </trkpt>
      <trkpt lat="43.56999" lon="1.45068">
        <ele>210.7</ele>
        <time>2014-03-20T15:58:21.737Z</time>
      </trkpt>
      <trkpt lat="43.56893" lon="1.45127">
        <ele>156.6</ele>
        <time>2014-03-20T15:59:04.383Z</time>
      </trkpt>
      <trkpt lat="43.5682" lon="1.45206">
        <ele>157.8</ele>
        <time>2014-03-20T15:59:25.829Z</time>
      </trkpt>
      <trkpt lat="43.56714" lon="1.45262">
        <ele>217.1</ele>
        <time>2014-03-20T15:59:48.386Z</time>
      </trkpt>
      <trkpt lat="43.56692" lon="1.45289">
        <ele>221.3</ele>
        <time>2014-03-20T15:59:56.843Z</time>
      </trkpt>
      <trkpt lat="43.56567" lon="1.4537">
        <ele>220.7</ele>
        <time>2014-03-20T16:00:32.387Z</time>
      </trkpt>
      <trkpt lat="43.56449" lon="1.45471">
        <ele>164.9</ele>
        <time>2014-03-20T16:01:26.379Z</time>
      </trkpt>
      <trkpt lat="43.56167" lon="1.45668">
        <ele>221.4</ele>
        <time>2014-03-20T16:02:28.386Z</time>
      </trkpt>
      <trkpt lat="43.56086" lon="1.45712">
        <ele>224.8</ele>
        <time>2014-03-20T16:02:56.424Z</time>
      </trkpt>
      <trkpt lat="43.56005" lon="1.4572">
        <ele>224.8</ele>
        <time>2014-03-20T16:03:22.372Z</time>
      </trkpt>
      <trkpt lat="43.55997" lon="1.4573">
        <ele>224.6</ele>
        <time>2014-03-20T16:03:30.427Z</time>
      </trkpt>
      <trkpt lat="43.56025" lon="1.45765">
        <ele>224.1</ele>
        <time>2014-03-20T16:03:44.421Z</time>
      </trkpt>
      <trkpt lat="43.56047" lon="1.45775">
        <ele>170.1</ele>
        <time>2014-03-20T16:04:15.475Z</time>
      </trkpt>
      <trkpt lat="43.56235" lon="1.45888">
        <ele>161</ele>
        <time>2014-03-20T16:04:15.573Z</time>
      </trkpt>
      <trkpt lat="43.56203" lon="1.45917">
        <ele>207.3</ele>
        <time>2014-03-20T16:04:16.373Z</time>
      </trkpt>
      <trkpt lat="43.5634" lon="1.46105">
        <ele>211</ele>
        <time>2014-03-20T16:04:52.412Z</time>
      </trkpt>
      <trkpt lat="43.56363" lon="1.46163">
        <ele>216.4</ele>
        <time>2014-03-20T16:05:03.381Z</time>
      </trkpt>
      <trkpt lat="43.56335" lon="1.46189">
        <ele>215.3</ele>
        <time>2014-03-20T16:05:11.385Z</time>
      </trkpt>
      <trkpt lat="43.56357" lon="1.46193">
        <ele>207.6</ele>
        <time>2014-03-20T16:05:22.378Z</time>
      </trkpt>
      <trkpt lat="43.56465" lon="1.46352">
        <ele>208.8</ele>
        <time>2014-03-20T16:05:54.434Z</time>
      </trkpt>
      <trkpt lat="43.56566" lon="1.46428">
        <ele>151</ele>
        <time>2014-03-20T16:06:30.672Z</time>
      </trkpt>
      <trkpt lat="43.56459" lon="1.46562">
        <ele>203.5</ele>
        <time>2014-03-20T16:06:43.371Z</time>
      </trkpt>
      <trkpt lat="43.56395" lon="1.46575">
        <ele>198.9</ele>
        <time>2014-03-20T16:06:51.388Z</time>
      </trkpt>
      <trkpt lat="43.5634" lon="1.46621">
        <ele>201.8</ele>
        <time>2014-03-20T16:07:05.405Z</time>
      </trkpt>
      <trkpt lat="43.56402" lon="1.46705">
        <ele>219.2</ele>
        <time>2014-03-20T16:07:23.447Z</time>
      </trkpt>
      <trkpt lat="43.5647" lon="1.46833">
        <ele>197.5</ele>
        <time>2014-03-20T16:07:50.427Z</time>
      </trkpt>
      <trkpt lat="43.56464" lon="1.46839">
        <ele>148</ele>
        <time>2014-03-20T16:08:18.384Z</time>
      </trkpt>
      <trkpt lat="43.56537" lon="1.46965">
        <ele>202.1</ele>
        <time>2014-03-20T16:08:19.363Z</time>
      </trkpt>
      <trkpt lat="43.56529" lon="1.46991">
        <ele>204.5</ele>
        <time>2014-03-20T16:08:23.423Z</time>
      </trkpt>
      <trkpt lat="43.56548" lon="1.47054">
        <ele>200.8</ele>
        <time>2014-03-20T16:08:34.387Z</time>
      </trkpt>
      <trkpt lat="43.56556" lon="1.47162">
        <ele>200.7</ele>
        <time>2014-03-20T16:09:00.365Z</time>
      </trkpt>
      <trkpt lat="43.56545" lon="1.47181">
        <ele>201.1</ele>
        <time>2014-03-20T16:09:06.675Z</time>
      </trkpt>
      <trkpt lat="43.56414" lon="1.47169">
        <ele>199.1</ele>
        <time>2014-03-20T16:09:35.415Z</time>
      </trkpt>
      <trkpt lat="43.56347" lon="1.47194">
        <ele>146</ele>
        <time>2014-03-20T16:10:02.371Z</time>
      </trkpt>
      <trkpt lat="43.56387" lon="1.47316">
        <ele>145.4</ele>
        <time>2014-03-20T16:10:02.717Z</time>
      </trkpt>
      <trkpt lat="43.56399" lon="1.47323">
        <ele>145.4</ele>
        <time>2014-03-20T16:10:10.217Z</time>
      </trkpt>
      <trkpt lat="43.56312" lon="1.47486">
        <ele>145</ele>
        <time>2014-03-20T16:10:50.627Z</time>
      </trkpt>
      <trkpt lat="43.56319" lon="1.47472">
        <ele>145</ele>
        <time>2014-03-20T16:11:24.396Z</time>
      </trkpt>
      <trkpt lat="43.56059" lon="1.47725">
        <ele>144.9</ele>
        <time>2014-03-20T16:11:25.362Z</time>
      </trkpt>
      <trkpt lat="43.56059" lon="1.47725">
        <ele>144.9</ele>
        <time>2014-03-20T16:12:09.367Z</time>
      </trkpt>
      <trkpt lat="43.55892" lon="1.47799">
        <ele>165.6</ele>
        <time>2014-03-20T16:12:10.325Z</time>
      </trkpt>
      <trkpt lat="43.55756" lon="1.4795">
        <ele>147</ele>
        <time>2014-03-20T16:13:00.15Z</time>
      </trkpt>
      <trkpt lat="43.55655" lon="1.48125">
        <ele>188.3</ele>
        <time>2014-03-20T16:13:21.365Z</time>
      </trkpt>
      <trkpt lat="43.55687" lon="1.48206">
        <ele>190.3</ele>
        <time>2014-03-20T16:13:42.482Z</time>
      </trkpt>
      <trkpt lat="43.55614" lon="1.48251">
        <ele>198.9</ele>
        <time>2014-03-20T16:14:03.407Z</time>
      </trkpt>
      <trkpt lat="43.55593" lon="1.48283">
        <ele>198.9</ele>
        <time>2014-03-20T16:14:11.413Z</time>
      </trkpt>
      <trkpt lat="43.55614" lon="1.48358">
        <ele>198.1</ele>
        <time>2014-03-20T16:14:24.385Z</time>
      </trkpt>
      <trkpt lat="43.55627" lon="1.48375">
        <ele>144.8</ele>
        <time>2014-03-20T16:14:43.384Z</time>
      </trkpt>
      <trkpt lat="43.55642" lon="1.48465">
        <ele>196.5</ele>
        <time>2014-03-20T16:14:44.386Z</time>
      </trkpt>
      <trkpt lat="43.55668" lon="1.48538">
        <ele>145.3</ele>
        <time>2014-03-20T16:15:11.421Z</time>
      </trkpt>
      <trkpt lat="43.55755" lon="1.48702">
        <ele>143.1</ele>
        <time>2014-03-20T16:15:47.242Z</time>
      </trkpt>
      <trkpt lat="43.55749" lon="1.48706">
        <ele>143.1</ele>
        <time>2014-03-20T16:16:04.41Z</time>
      </trkpt>
      <trkpt lat="43.55913" lon="1.48879">
        <ele>184.2</ele>
        <time>2014-03-20T16:16:05.495Z</time>
      </trkpt>
      <trkpt lat="43.5592" lon="1.48889">
        <ele>185.4</ele>
        <time>2014-03-20T16:16:07.438Z</time>
      </trkpt>
      <trkpt lat="43.55994" lon="1.48886">
        <ele>179.6</ele>
        <time>2014-03-20T16:16:21.42Z</time>
      </trkpt>
      <trkpt lat="43.56038" lon="1.48952">
        <ele>180</ele>
        <time>2014-03-20T16:16:34.445Z</time>
      </trkpt>
      <trkpt lat="43.56052" lon="1.49078">
        <ele>175.2</ele>
        <time>2014-03-20T16:16:51.436Z</time>
      </trkpt>
      <trkpt lat="43.56065" lon="1.49118">
        <ele>183.8</ele>
        <time>2014-03-20T16:16:57.466Z</time>
      </trkpt>
      <trkpt lat="43.56124" lon="1.49221">
        <ele>192.1</ele>
        <time>2014-03-20T16:17:18.423Z</time>
      </trkpt>
      <trkpt lat="43.5617" lon="1.49263">
        <ele>196.4</ele>
        <time>2014-03-20T16:17:31.411Z</time>
      </trkpt>
      <trkpt lat="43.56296" lon="1.49249">
        <ele>195.5</ele>
        <time>2014-03-20T16:18:02.389Z</time>
      </trkpt>
      <trkpt lat="43.56402" lon="1.4914">
        <ele>189.5</ele>
        <time>2014-03-20T16:18:36.382Z</time>
      </trkpt>
      <trkpt lat="43.56426" lon="1.49209">
        <ele>204.3</ele>
        <time>2014-03-20T16:18:45.418Z</time>
      </trkpt>
      <trkpt lat="43.56417" lon="1.49215">
        <ele>143</ele>
        <time>2014-03-20T16:18:56.871Z</time>
      </trkpt>
      <trkpt lat="43.56388" lon="1.49491">
        <ele>196.7</ele>
        <time>2014-03-20T16:19:27.42Z</time>
      </trkpt>
      <trkpt lat="43.56321" lon="1.49484">
        <ele>199.1</ele>
        <time>2014-03-20T16:19:43.424Z</time>
      </trkpt>
      <trkpt lat="43.56213" lon="1.49497">
        <ele>201.6</ele>
        <time>2014-03-20T16:20:06.714Z</time>
      </trkpt>
      <trkpt lat="43.55883" lon="1.49501">
        <ele>189</ele>
        <time>2014-03-20T16:21:19.393Z</time>
      </trkpt>
      <trkpt lat="43.55877" lon="1.49535">
        <ele>188.4</ele>
        <time>2014-03-20T16:21:26.437Z</time>
      </trkpt>
      <trkpt lat="43.55913" lon="1.49588">
        <ele>186.2</ele>
        <time>2014-03-20T16:21:45.83Z</time>
      </trkpt>
      <trkpt lat="43.55917" lon="1.49628">
        <ele>186.4</ele>
        <time>2014-03-20T16:22:00.309Z</time>
      </trkpt>
      <trkpt lat="43.5586" lon="1.49645">
        <ele>189.6</ele>
        <time>2014-03-20T16:22:16.403Z</time>
      </trkpt>
      <trkpt lat="43.55839" lon="1.49709">
        <ele>192.1</ele>
        <time>2014-03-20T16:22:26.41Z</time>
      </trkpt>
      <trkpt lat="43.55875" lon="1.49896">
        <ele>172.7</ele>
        <time>2014-03-20T16:22:51.517Z</time>
      </trkpt>
      <trkpt lat="43.55915" lon="1.49983">
        <ele>187.2</ele>
        <time>2014-03-20T16:23:05.8Z</time>
      </trkpt>
      <trkpt lat="43.55976" lon="1.50216">
        <ele>199.1</ele>
        <time>2014-03-20T16:23:44.395Z</time>
      </trkpt>
      <trkpt lat="43.55952" lon="1.50215">
        <ele>149.5</ele>
        <time>2014-03-20T16:24:38.389Z</time>
      </trkpt>
      <trkpt lat="43.55811" lon="1.50355">
        <ele>195.2</ele>
        <time>2014-03-20T16:24:39.39Z</time>
      </trkpt>
      <trkpt lat="43.55632" lon="1.50456">
        <ele>190.7</ele>
        <time>2014-03-20T16:25:26.39Z</time>
      </trkpt>
      <trkpt lat="43.55657" lon="1.50522">
        <ele>148.9</ele>
        <time>2014-03-20T16:26:06.397Z</time>
      </trkpt>
      <trkpt lat="43.55765" lon="1.50654">
        <ele>182.4</ele>
        <time>2014-03-20T16:26:07.403Z</time>
      </trkpt>
      <trkpt lat="43.55887" lon="1.50828">
        <ele>163.8</ele>
        <time>2014-03-20T16:26:45.394Z</time>
      </trkpt>
      <trkpt lat="43.55987" lon="1.50905">
        <ele>194.4</ele>
        <time>2014-03-20T16:27:07.372Z</time>
      </trkpt>
      <trkpt lat="43.56038" lon="1.50994">
        <ele>199.4</ele>
        <time>2014-03-20T16:27:25.394Z</time>
      </trkpt>
      <trkpt lat="43.56031" lon="1.51025">
        <ele>193.4</ele>
        <time>2014-03-20T16:27:31.401Z</time>
      </trkpt>
      <trkpt lat="43.56007" lon="1.51046">
        <ele>150</ele>
        <time>2014-03-20T16:27:55.364Z</time>
      </trkpt>
      <trkpt lat="43.55873" lon="1.51291">
        <ele>197.1</ele>
        <time>2014-03-20T16:28:25.452Z</time>
      </trkpt>
      <trkpt lat="43.55911" lon="1.5146">
        <ele>202.2</ele>
        <time>2014-03-20T16:28:54.399Z</time>
      </trkpt>
      <trkpt lat="43.55819" lon="1.51666">
        <ele>153</ele>
        <time>2014-03-20T16:29:47.446Z</time>
      </trkpt>
      <trkpt lat="43.558" lon="1.51728">
        <ele>153</ele>
        <time>2014-03-20T16:30:18.74Z</time>
      </trkpt>
      <trkpt lat="43.5582" lon="1.51827">
        <ele>196.8</ele>
        <time>2014-03-20T16:30:20.253Z</time>
      </trkpt>
      <trkpt lat="43.55828" lon="1.51822">
        <ele>197.9</ele>
        <time>2014-03-20T16:30:42.361Z</time>
      </trkpt>
    </trkseg>
  </trk>
</gpx>